sensor_id;sensor_type;location;lat;lon;timestamp;pressure;altitude;pressure_sealevel;temperature
12430;BMP280;6279;42.192;24.326;2023-01-15T00:01:23;99697.56;;;7.62
12430;BMP280;6279;42.192;24.326;2023-01-15T00:03:49;99702.75;;;7.62
12430;BMP280;6279;42.192;24.326;2023-01-15T00:06:15;99698.38;;;7.62
12430;BMP280;6279;42.192;24.326;2023-01-15T00:08:41;99702.34;;;7.66
12430;BMP280;6279;42.192;24.326;2023-01-15T00:11:07;99705.09;;;7.74
12430;BMP280;6279;42.192;24.326;2023-01-15T00:13:32;99701.56;;;7.75
12430;BMP280;6279;42.192;24.326;2023-01-15T00:16:09;99707.50;;;7.66
12430;BMP280;6279;42.192;24.326;2023-01-15T00:18:36;99694.84;;;7.63
12430;BMP280;6279;42.192;24.326;2023-01-15T00:21:07;99700.81;;;7.54
12430;BMP280;6279;42.192;24.326;2023-01-15T00:23:35;99703.00;;;7.59
12430;BMP280;6279;42.192;24.326;2023-01-15T00:26:20;99704.91;;;7.57
12430;BMP280;6279;42.192;24.326;2023-01-15T00:29:05;99706.56;;;7.58
12430;BMP280;6279;42.192;24.326;2023-01-15T00:31:32;99706.41;;;7.59
12430;BMP280;6279;42.192;24.326;2023-01-15T00:33:58;99697.97;;;7.66
12430;BMP280;6279;42.192;24.326;2023-01-15T00:36:23;99705.06;;;7.65
12430;BMP280;6279;42.192;24.326;2023-01-15T00:38:50;99700.69;;;7.56
12430;BMP280;6279;42.192;24.326;2023-01-15T00:41:15;99705.69;;;7.48
12430;BMP280;6279;42.192;24.326;2023-01-15T00:43:40;99703.41;;;7.54
12430;BMP280;6279;42.192;24.326;2023-01-15T00:46:06;99707.09;;;7.61
12430;BMP280;6279;42.192;24.326;2023-01-15T00:48:36;99701.50;;;7.56
12430;BMP280;6279;42.192;24.326;2023-01-15T00:51:02;99700.84;;;7.64
12430;BMP280;6279;42.192;24.326;2023-01-15T00:53:29;99702.50;;;7.74
12430;BMP280;6279;42.192;24.326;2023-01-15T00:55:54;99698.16;;;7.84
12430;BMP280;6279;42.192;24.326;2023-01-15T00:58:20;99696.50;;;7.83
12430;BMP280;6279;42.192;24.326;2023-01-15T01:00:45;99691.59;;;7.80
12430;BMP280;6279;42.192;24.326;2023-01-15T01:03:11;99691.88;;;7.77
12430;BMP280;6279;42.192;24.326;2023-01-15T01:05:36;99696.66;;;7.72
12430;BMP280;6279;42.192;24.326;2023-01-15T01:08:02;99692.38;;;7.62
12430;BMP280;6279;42.192;24.326;2023-01-15T01:10:27;99696.16;;;7.48
12430;BMP280;6279;42.192;24.326;2023-01-15T01:12:53;99692.03;;;7.37
12430;BMP280;6279;42.192;24.326;2023-01-15T01:15:21;99696.69;;;7.43
12430;BMP280;6279;42.192;24.326;2023-01-15T01:17:46;99693.56;;;7.48
12430;BMP280;6279;42.192;24.326;2023-01-15T01:20:13;99693.31;;;7.51
12430;BMP280;6279;42.192;24.326;2023-01-15T01:22:39;99688.66;;;7.45
12430;BMP280;6279;42.192;24.326;2023-01-15T01:25:06;99691.41;;;7.53
12430;BMP280;6279;42.192;24.326;2023-01-15T01:27:31;99689.66;;;7.63
12430;BMP280;6279;42.192;24.326;2023-01-15T01:29:56;99686.13;;;7.64
12430;BMP280;6279;42.192;24.326;2023-01-15T01:32:22;99689.53;;;7.65
12430;BMP280;6279;42.192;24.326;2023-01-15T01:34:47;99687.75;;;7.65
12430;BMP280;6279;42.192;24.326;2023-01-15T01:37:13;99687.09;;;7.72
12430;BMP280;6279;42.192;24.326;2023-01-15T01:39:38;99681.53;;;7.77
12430;BMP280;6279;42.192;24.326;2023-01-15T01:42:12;99672.81;;;7.78
12430;BMP280;6279;42.192;24.326;2023-01-15T01:47:07;99683.84;;;7.80
12430;BMP280;6279;42.192;24.326;2023-01-15T01:49:35;99685.06;;;7.76
12430;BMP280;6279;42.192;24.326;2023-01-15T01:52:04;99682.88;;;7.71
12430;BMP280;6279;42.192;24.326;2023-01-15T01:54:33;99683.03;;;7.70
12430;BMP280;6279;42.192;24.326;2023-01-15T01:56:59;99674.97;;;7.73
12430;BMP280;6279;42.192;24.326;2023-01-15T01:59:25;99679.47;;;7.80
12430;BMP280;6279;42.192;24.326;2023-01-15T02:01:51;99674.72;;;7.76
12430;BMP280;6279;42.192;24.326;2023-01-15T02:04:19;99669.94;;;7.81
12430;BMP280;6279;42.192;24.326;2023-01-15T02:06:46;99676.75;;;7.82
12430;BMP280;6279;42.192;24.326;2023-01-15T02:09:11;99672.25;;;7.84
12430;BMP280;6279;42.192;24.326;2023-01-15T02:11:37;99668.72;;;7.85
12430;BMP280;6279;42.192;24.326;2023-01-15T02:16:49;99668.84;;;7.83
12430;BMP280;6279;42.192;24.326;2023-01-15T02:22:21;99668.28;;;7.61
12430;BMP280;6279;42.192;24.326;2023-01-15T02:27:44;99668.56;;;7.77
12430;BMP280;6279;42.192;24.326;2023-01-15T02:30:30;99667.06;;;7.84
12430;BMP280;6279;42.192;24.326;2023-01-15T02:33:07;99671.31;;;7.85
12430;BMP280;6279;42.192;24.326;2023-01-15T02:35:37;99671.31;;;7.94
12430;BMP280;6279;42.192;24.326;2023-01-15T02:38:06;99661.25;;;8.00
12430;BMP280;6279;42.192;24.326;2023-01-15T02:40:34;99648.69;;;7.96
12430;BMP280;6279;42.192;24.326;2023-01-15T02:43:00;99655.94;;;7.92
12430;BMP280;6279;42.192;24.326;2023-01-15T02:45:35;99643.66;;;7.94
12430;BMP280;6279;42.192;24.326;2023-01-15T02:48:05;99651.03;;;7.89
12430;BMP280;6279;42.192;24.326;2023-01-15T02:50:36;99653.44;;;7.82
12430;BMP280;6279;42.192;24.326;2023-01-15T02:53:07;99658.91;;;7.79
12430;BMP280;6279;42.192;24.326;2023-01-15T02:55:41;99657.53;;;7.75
12430;BMP280;6279;42.192;24.326;2023-01-15T02:58:11;99659.56;;;7.62
12430;BMP280;6279;42.192;24.326;2023-01-15T03:00:40;99656.16;;;7.62
12430;BMP280;6279;42.192;24.326;2023-01-15T03:03:12;99657.50;;;7.65
12430;BMP280;6279;42.192;24.326;2023-01-15T03:05:42;99650.72;;;7.74
12430;BMP280;6279;42.192;24.326;2023-01-15T03:08:10;99663.00;;;7.72
12430;BMP280;6279;42.192;24.326;2023-01-15T03:13:02;99663.13;;;7.70
12430;BMP280;6279;42.192;24.326;2023-01-15T03:21:18;99669.63;;;7.56
12430;BMP280;6279;42.192;24.326;2023-01-15T03:23:48;99667.22;;;7.73
12430;BMP280;6279;42.192;24.326;2023-01-15T03:26:16;99660.78;;;7.67
12430;BMP280;6279;42.192;24.326;2023-01-15T03:28:42;99672.53;;;7.71
12430;BMP280;6279;42.192;24.326;2023-01-15T03:31:07;99663.00;;;7.72
12430;BMP280;6279;42.192;24.326;2023-01-15T03:33:33;99664.91;;;7.70
12430;BMP280;6279;42.192;24.326;2023-01-15T03:36:00;99665.75;;;7.89
12430;BMP280;6279;42.192;24.326;2023-01-15T03:38:28;99662.47;;;7.87
12430;BMP280;6279;42.192;24.326;2023-01-15T03:41:24;99656.19;;;7.89
12430;BMP280;6279;42.192;24.326;2023-01-15T03:53:05;99656.09;;;8.10
12430;BMP280;6279;42.192;24.326;2023-01-15T03:58:17;99651.06;;;8.27
12430;BMP280;6279;42.192;24.326;2023-01-15T04:00:55;99659.13;;;8.24
12430;BMP280;6279;42.192;24.326;2023-01-15T04:03:24;99669.59;;;8.22
12430;BMP280;6279;42.192;24.326;2023-01-15T04:05:51;99661.69;;;8.24
12430;BMP280;6279;42.192;24.326;2023-01-15T04:08:18;99666.59;;;8.27
12430;BMP280;6279;42.192;24.326;2023-01-15T04:10:56;99664.28;;;8.24
12430;BMP280;6279;42.192;24.326;2023-01-15T04:13:21;99663.34;;;8.25
12430;BMP280;6279;42.192;24.326;2023-01-15T04:15:47;99663.44;;;8.32
12430;BMP280;6279;42.192;24.326;2023-01-15T04:18:13;99668.25;;;8.28
12430;BMP280;6279;42.192;24.326;2023-01-15T04:20:38;99664.28;;;8.24
12430;BMP280;6279;42.192;24.326;2023-01-15T04:23:03;99666.31;;;8.30
12430;BMP280;6279;42.192;24.326;2023-01-15T04:25:29;99674.75;;;8.22
12430;BMP280;6279;42.192;24.326;2023-01-15T04:27:54;99685.63;;;7.98
12430;BMP280;6279;42.192;24.326;2023-01-15T04:30:20;99691.84;;;8.06
12430;BMP280;6279;42.192;24.326;2023-01-15T04:32:49;99690.88;;;8.07
12430;BMP280;6279;42.192;24.326;2023-01-15T04:35:15;99689.72;;;8.00
12430;BMP280;6279;42.192;24.326;2023-01-15T04:37:41;99696.50;;;7.73
12430;BMP280;6279;42.192;24.326;2023-01-15T04:40:07;99697.03;;;7.67
12430;BMP280;6279;42.192;24.326;2023-01-15T04:42:33;99696.38;;;7.75
12430;BMP280;6279;42.192;24.326;2023-01-15T04:45:17;99702.50;;;7.83
12430;BMP280;6279;42.192;24.326;2023-01-15T04:47:42;99705.41;;;7.89
12430;BMP280;6279;42.192;24.326;2023-01-15T04:50:08;99703.31;;;7.84
12430;BMP280;6279;42.192;24.326;2023-01-15T04:52:34;99701.72;;;7.92
12430;BMP280;6279;42.192;24.326;2023-01-15T04:55:00;99700.09;;;7.91
12430;BMP280;6279;42.192;24.326;2023-01-15T04:57:25;99693.81;;;7.93
12430;BMP280;6279;42.192;24.326;2023-01-15T04:59:51;99700.38;;;7.88
12430;BMP280;6279;42.192;24.326;2023-01-15T05:02:16;99698.16;;;7.74
12430;BMP280;6279;42.192;24.326;2023-01-15T05:04:41;99710.28;;;7.74
12430;BMP280;6279;42.192;24.326;2023-01-15T05:07:08;99703.88;;;7.78
12430;BMP280;6279;42.192;24.326;2023-01-15T05:09:34;99714.59;;;7.64
12430;BMP280;6279;42.192;24.326;2023-01-15T05:11:59;99708.59;;;7.54
12430;BMP280;6279;42.192;24.326;2023-01-15T05:14:25;99705.19;;;7.63
12430;BMP280;6279;42.192;24.326;2023-01-15T05:16:50;99712.28;;;7.61
12430;BMP280;6279;42.192;24.326;2023-01-15T05:19:16;99713.91;;;7.62
12430;BMP280;6279;42.192;24.326;2023-01-15T05:21:42;99717.06;;;7.65
12430;BMP280;6279;42.192;24.326;2023-01-15T05:24:13;99711.88;;;7.56
12430;BMP280;6279;42.192;24.326;2023-01-15T05:26:40;99712.31;;;7.70
12430;BMP280;6279;42.192;24.326;2023-01-15T05:29:05;99718.13;;;7.63
12430;BMP280;6279;42.192;24.326;2023-01-15T05:31:31;99715.81;;;7.51
12430;BMP280;6279;42.192;24.326;2023-01-15T05:34:00;99720.25;;;7.40
12430;BMP280;6279;42.192;24.326;2023-01-15T05:36:30;99719.56;;;7.38
12430;BMP280;6279;42.192;24.326;2023-01-15T05:38:57;99725.56;;;7.47
12430;BMP280;6279;42.192;24.326;2023-01-15T05:41:25;99726.66;;;7.45
12430;BMP280;6279;42.192;24.326;2023-01-15T05:44:11;99726.09;;;7.42
12430;BMP280;6279;42.192;24.326;2023-01-15T05:46:38;99719.25;;;7.31
12430;BMP280;6279;42.192;24.326;2023-01-15T05:49:12;99721.75;;;7.42
12430;BMP280;6279;42.192;24.326;2023-01-15T05:51:38;99717.94;;;7.46
12430;BMP280;6279;42.192;24.326;2023-01-15T05:54:05;99720.13;;;7.50
12430;BMP280;6279;42.192;24.326;2023-01-15T05:56:34;99714.19;;;7.59
12430;BMP280;6279;42.192;24.326;2023-01-15T05:58:59;99723.16;;;7.55
12430;BMP280;6279;42.192;24.326;2023-01-15T06:01:24;99713.13;;;7.32
12430;BMP280;6279;42.192;24.326;2023-01-15T06:03:50;99715.53;;;7.15
12430;BMP280;6279;42.192;24.326;2023-01-15T06:06:17;99714.03;;;7.22
12430;BMP280;6279;42.192;24.326;2023-01-15T06:08:44;99715.69;;;7.32
12430;BMP280;6279;42.192;24.326;2023-01-15T06:11:12;99714.31;;;7.28
12430;BMP280;6279;42.192;24.326;2023-01-15T06:13:38;99720.56;;;7.17
12430;BMP280;6279;42.192;24.326;2023-01-15T06:16:05;99705.88;;;7.26
12430;BMP280;6279;42.192;24.326;2023-01-15T06:18:31;99708.56;;;7.16
12430;BMP280;6279;42.192;24.326;2023-01-15T06:21:02;99715.31;;;7.07
12430;BMP280;6279;42.192;24.326;2023-01-15T06:23:27;99723.38;;;7.14
12430;BMP280;6279;42.192;24.326;2023-01-15T06:25:53;99713.75;;;7.16
12430;BMP280;6279;42.192;24.326;2023-01-15T06:28:18;99718.84;;;7.06
12430;BMP280;6279;42.192;24.326;2023-01-15T06:30:43;99719.94;;;7.04
12430;BMP280;6279;42.192;24.326;2023-01-15T06:33:09;99721.50;;;7.16
12430;BMP280;6279;42.192;24.326;2023-01-15T06:35:34;99725.75;;;7.26
12430;BMP280;6279;42.192;24.326;2023-01-15T06:38:00;99726.56;;;7.17
12430;BMP280;6279;42.192;24.326;2023-01-15T06:40:25;99726.28;;;7.20
12430;BMP280;6279;42.192;24.326;2023-01-15T06:42:52;99720.78;;;7.34
12430;BMP280;6279;42.192;24.326;2023-01-15T06:45:38;99728.59;;;7.52
12430;BMP280;6279;42.192;24.326;2023-01-15T06:48:23;99731.34;;;7.60
12430;BMP280;6279;42.192;24.326;2023-01-15T06:50:49;99724.81;;;7.65
12430;BMP280;6279;42.192;24.326;2023-01-15T06:53:15;99727.53;;;7.64
12430;BMP280;6279;42.192;24.326;2023-01-15T06:55:40;99732.22;;;7.70
12430;BMP280;6279;42.192;24.326;2023-01-15T06:58:05;99740.38;;;7.75
12430;BMP280;6279;42.192;24.326;2023-01-15T07:00:31;99740.38;;;7.75
12430;BMP280;6279;42.192;24.326;2023-01-15T07:03:00;99739.97;;;7.70
12430;BMP280;6279;42.192;24.326;2023-01-15T07:05:25;99755.06;;;7.65
12430;BMP280;6279;42.192;24.326;2023-01-15T07:07:51;99745.19;;;7.50
12430;BMP280;6279;42.192;24.326;2023-01-15T07:10:17;99754.78;;;7.59
12430;BMP280;6279;42.192;24.326;2023-01-15T07:12:42;99753.56;;;7.63
12430;BMP280;6279;42.192;24.326;2023-01-15T07:15:08;99747.41;;;7.54
12430;BMP280;6279;42.192;24.326;2023-01-15T07:17:34;99751.16;;;7.70
12430;BMP280;6279;42.192;24.326;2023-01-15T07:19:59;99748.03;;;7.76
12430;BMP280;6279;42.192;24.326;2023-01-15T07:22:25;99754.78;;;7.68
12430;BMP280;6279;42.192;24.326;2023-01-15T07:24:50;99758.47;;;7.65
12430;BMP280;6279;42.192;24.326;2023-01-15T07:27:16;99752.13;;;7.79
12430;BMP280;6279;42.192;24.326;2023-01-15T07:29:41;99746.38;;;7.75
12430;BMP280;6279;42.192;24.326;2023-01-15T07:32:12;99756.88;;;7.74
12430;BMP280;6279;42.192;24.326;2023-01-15T07:34:37;99756.34;;;7.80
12430;BMP280;6279;42.192;24.326;2023-01-15T07:37:03;99760.91;;;7.67
12430;BMP280;6279;42.192;24.326;2023-01-15T07:39:28;99763.75;;;7.55
12430;BMP280;6279;42.192;24.326;2023-01-15T07:41:55;99756.97;;;7.63
12430;BMP280;6279;42.192;24.326;2023-01-15T07:44:39;99758.78;;;7.43
12430;BMP280;6279;42.192;24.326;2023-01-15T07:47:24;99763.72;;;7.45
12430;BMP280;6279;42.192;24.326;2023-01-15T07:50:15;99765.34;;;7.46
12430;BMP280;6279;42.192;24.326;2023-01-15T07:52:41;99762.38;;;7.51
12430;BMP280;6279;42.192;24.326;2023-01-15T07:55:07;99755.19;;;7.64
12430;BMP280;6279;42.192;24.326;2023-01-15T07:57:33;99761.38;;;7.72
12430;BMP280;6279;42.192;24.326;2023-01-15T07:59:59;99760.56;;;7.71
12430;BMP280;6279;42.192;24.326;2023-01-15T08:02:25;99768.25;;;7.53
12430;BMP280;6279;42.192;24.326;2023-01-15T08:04:51;99761.09;;;7.75
12430;BMP280;6279;42.192;24.326;2023-01-15T08:07:16;99760.34;;;7.93
12430;BMP280;6279;42.192;24.326;2023-01-15T08:09:42;99761.03;;;7.95
12430;BMP280;6279;42.192;24.326;2023-01-15T08:12:09;99762.09;;;7.92
12430;BMP280;6279;42.192;24.326;2023-01-15T08:14:53;99757.34;;;7.97
12430;BMP280;6279;42.192;24.326;2023-01-15T08:17:40;99760.94;;;8.06
12430;BMP280;6279;42.192;24.326;2023-01-15T08:20:25;99759.34;;;8.23
12430;BMP280;6279;42.192;24.326;2023-01-15T08:22:53;99753.06;;;8.35
12430;BMP280;6279;42.192;24.326;2023-01-15T08:25:30;99759.88;;;8.27
12430;BMP280;6279;42.192;24.326;2023-01-15T08:28:03;99748.28;;;8.21
12430;BMP280;6279;42.192;24.326;2023-01-15T08:30:44;99742.69;;;8.35
12430;BMP280;6279;42.192;24.326;2023-01-15T08:33:17;99752.53;;;8.50
12430;BMP280;6279;42.192;24.326;2023-01-15T08:35:43;99745.72;;;8.58
12430;BMP280;6279;42.192;24.326;2023-01-15T08:38:11;99745.66;;;8.86
12430;BMP280;6279;42.192;24.326;2023-01-15T08:40:42;99749.22;;;8.85
12430;BMP280;6279;42.192;24.326;2023-01-15T08:43:31;99742.38;;;8.94
12430;BMP280;6279;42.192;24.326;2023-01-15T08:46:08;99739.88;;;9.11
12430;BMP280;6279;42.192;24.326;2023-01-15T08:48:34;99733.19;;;9.18
12430;BMP280;6279;42.192;24.326;2023-01-15T08:51:03;99740.16;;;9.08
12430;BMP280;6279;42.192;24.326;2023-01-15T08:53:29;99745.28;;;9.26
12430;BMP280;6279;42.192;24.326;2023-01-15T08:55:54;99749.38;;;9.29
12430;BMP280;6279;42.192;24.326;2023-01-15T08:58:20;99743.66;;;9.25
12430;BMP280;6279;42.192;24.326;2023-01-15T09:00:46;99742.78;;;9.43
12430;BMP280;6279;42.192;24.326;2023-01-15T09:03:13;99739.19;;;9.54
12430;BMP280;6279;42.192;24.326;2023-01-15T09:05:38;99734.22;;;9.69
12430;BMP280;6279;42.192;24.326;2023-01-15T09:08:04;99732.28;;;9.98
12430;BMP280;6279;42.192;24.326;2023-01-15T09:10:42;99731.47;;;9.97
12430;BMP280;6279;42.192;24.326;2023-01-15T09:13:08;99734.84;;;10.07
12430;BMP280;6279;42.192;24.326;2023-01-15T09:15:33;99727.13;;;10.15
12430;BMP280;6279;42.192;24.326;2023-01-15T09:17:59;99712.19;;;10.34
12430;BMP280;6279;42.192;24.326;2023-01-15T09:20:24;99728.75;;;10.50
12430;BMP280;6279;42.192;24.326;2023-01-15T09:22:50;99721.56;;;10.61
12430;BMP280;6279;42.192;24.326;2023-01-15T09:25:16;99713.97;;;10.51
12430;BMP280;6279;42.192;24.326;2023-01-15T09:27:43;99719.63;;;10.63
12430;BMP280;6279;42.192;24.326;2023-01-15T09:30:15;99708.59;;;10.69
12430;BMP280;6279;42.192;24.326;2023-01-15T09:32:40;99711.06;;;10.36
12430;BMP280;6279;42.192;24.326;2023-01-15T09:35:06;99702.53;;;10.27
12430;BMP280;6279;42.192;24.326;2023-01-15T09:37:32;99707.66;;;10.02
12430;BMP280;6279;42.192;24.326;2023-01-15T09:39:57;99696.81;;;10.06
12430;BMP280;6279;42.192;24.326;2023-01-15T09:42:29;99686.44;;;10.06
12430;BMP280;6279;42.192;24.326;2023-01-15T09:56:23;99686.47;;;9.97
12430;BMP280;6279;42.192;24.326;2023-01-15T09:58:50;99671.03;;;9.95
12430;BMP280;6279;42.192;24.326;2023-01-15T10:01:20;99677.38;;;9.66
12430;BMP280;6279;42.192;24.326;2023-01-15T10:03:51;99672.66;;;9.53
12430;BMP280;6279;42.192;24.326;2023-01-15T10:09:32;99666.59;;;9.35
12430;BMP280;6279;42.192;24.326;2023-01-15T10:12:08;99668.47;;;9.42
12430;BMP280;6279;42.192;24.326;2023-01-15T10:17:54;99660.00;;;9.41
12430;BMP280;6279;42.192;24.326;2023-01-15T10:23:41;99658.34;;;9.49
12430;BMP280;6279;42.192;24.326;2023-01-15T10:28:56;99649.31;;;9.43
12430;BMP280;6279;42.192;24.326;2023-01-15T10:45:51;99618.41;;;8.97
12430;BMP280;6279;42.192;24.326;2023-01-15T10:51:03;99618.50;;;8.69
12430;BMP280;6279;42.192;24.326;2023-01-15T10:53:30;99610.75;;;8.60
12430;BMP280;6279;42.192;24.326;2023-01-15T10:58:51;99614.56;;;8.56
12430;BMP280;6279;42.192;24.326;2023-01-15T11:01:20;99605.56;;;8.60
12430;BMP280;6279;42.192;24.326;2023-01-15T11:03:48;99602.69;;;8.63
12430;BMP280;6279;42.192;24.326;2023-01-15T11:06:19;99602.13;;;8.69
12430;BMP280;6279;42.192;24.326;2023-01-15T11:08:50;99592.28;;;8.72
12430;BMP280;6279;42.192;24.326;2023-01-15T11:13:55;99578.72;;;8.87
12430;BMP280;6279;42.192;24.326;2023-01-15T11:16:40;99577.47;;;8.91
12430;BMP280;6279;42.192;24.326;2023-01-15T11:19:45;99574.88;;;8.91
12430;BMP280;6279;42.192;24.326;2023-01-15T11:22:13;99566.25;;;9.00
12430;BMP280;6279;42.192;24.326;2023-01-15T11:27:15;99566.59;;;9.14
12430;BMP280;6279;42.192;24.326;2023-01-15T11:29:43;99556.88;;;9.16
12430;BMP280;6279;42.192;24.326;2023-01-15T11:32:29;99553.16;;;9.19
12430;BMP280;6279;42.192;24.326;2023-01-15T11:35:00;99546.81;;;9.30
12430;BMP280;6279;42.192;24.326;2023-01-15T11:37:26;99539.03;;;9.64
12430;BMP280;6279;42.192;24.326;2023-01-15T11:39:57;99535.41;;;9.92
12430;BMP280;6279;42.192;24.326;2023-01-15T11:42:29;99533.22;;;10.22
12430;BMP280;6279;42.192;24.326;2023-01-15T11:45:18;99527.66;;;10.17
12430;BMP280;6279;42.192;24.326;2023-01-15T11:51:15;99536.53;;;10.07
12430;BMP280;6279;42.192;24.326;2023-01-15T11:53:48;99532.59;;;10.03
12430;BMP280;6279;42.192;24.326;2023-01-15T11:56:17;99533.78;;;10.08
12430;BMP280;6279;42.192;24.326;2023-01-15T12:01:13;99524.31;;;10.24
12430;BMP280;6279;42.192;24.326;2023-01-15T12:03:45;99518.78;;;10.27
12430;BMP280;6279;42.192;24.326;2023-01-15T12:06:12;99513.59;;;10.27
12430;BMP280;6279;42.192;24.326;2023-01-15T12:08:54;99511.91;;;10.18
12430;BMP280;6279;42.192;24.326;2023-01-15T12:16:48;99507.44;;;10.03
12430;BMP280;6279;42.192;24.326;2023-01-15T12:32:45;99500.69;;;9.41
12430;BMP280;6279;42.192;24.326;2023-01-15T12:35:21;99495.34;;;9.43
12430;BMP280;6279;42.192;24.326;2023-01-15T12:37:53;99503.44;;;9.40
12430;BMP280;6279;42.192;24.326;2023-01-15T12:40:25;99500.78;;;9.32
12430;BMP280;6279;42.192;24.326;2023-01-15T12:42:53;99484.38;;;9.32
12430;BMP280;6279;42.192;24.326;2023-01-15T12:45:48;99489.63;;;9.22
12430;BMP280;6279;42.192;24.326;2023-01-15T12:48:29;99492.78;;;8.99
12430;BMP280;6279;42.192;24.326;2023-01-15T12:50:59;99492.38;;;8.77
12430;BMP280;6279;42.192;24.326;2023-01-15T12:58:44;99497.06;;;8.65
12430;BMP280;6279;42.192;24.326;2023-01-15T13:01:20;99496.78;;;8.68
12430;BMP280;6279;42.192;24.326;2023-01-15T13:04:19;99492.94;;;8.72
12430;BMP280;6279;42.192;24.326;2023-01-15T13:06:51;99489.22;;;8.74
12430;BMP280;6279;42.192;24.326;2023-01-15T13:09:22;99491.16;;;8.72
12430;BMP280;6279;42.192;24.326;2023-01-15T13:11:50;99489.66;;;8.70
12430;BMP280;6279;42.192;24.326;2023-01-15T13:14:20;99496.94;;;8.66
12430;BMP280;6279;42.192;24.326;2023-01-15T13:17:22;99492.72;;;8.65
12430;BMP280;6279;42.192;24.326;2023-01-15T13:22:25;99495.16;;;8.67
12430;BMP280;6279;42.192;24.326;2023-01-15T13:25:07;99500.03;;;8.70
12430;BMP280;6279;42.192;24.326;2023-01-15T13:30:53;99486.38;;;8.77
12430;BMP280;6279;42.192;24.326;2023-01-15T13:33:36;99484.19;;;8.73
12430;BMP280;6279;42.192;24.326;2023-01-15T13:38:39;99477.72;;;8.59
12430;BMP280;6279;42.192;24.326;2023-01-15T13:41:06;99473.91;;;8.54
12430;BMP280;6279;42.192;24.326;2023-01-15T13:43:40;99473.16;;;8.44
12430;BMP280;6279;42.192;24.326;2023-01-15T13:46:10;99477.75;;;8.50
12430;BMP280;6279;42.192;24.326;2023-01-15T13:48:44;99472.88;;;8.47
12430;BMP280;6279;42.192;24.326;2023-01-15T13:51:33;99475.63;;;8.36
12430;BMP280;6279;42.192;24.326;2023-01-15T13:54:12;99473.47;;;8.32
12430;BMP280;6279;42.192;24.326;2023-01-15T13:56:40;99471.94;;;8.39
12430;BMP280;6279;42.192;24.326;2023-01-15T14:02:19;99461.84;;;8.36
12430;BMP280;6279;42.192;24.326;2023-01-15T14:04:47;99464.31;;;8.37
12430;BMP280;6279;42.192;24.326;2023-01-15T14:07:20;99471.84;;;8.31
12430;BMP280;6279;42.192;24.326;2023-01-15T14:09:48;99467.31;;;8.42
12430;BMP280;6279;42.192;24.326;2023-01-15T14:12:33;99463.00;;;8.24
12430;BMP280;6279;42.192;24.326;2023-01-15T14:15:28;99459.09;;;8.11
12430;BMP280;6279;42.192;24.326;2023-01-15T14:26:10;99464.28;;;8.02
12430;BMP280;6279;42.192;24.326;2023-01-15T14:28:47;99460.47;;;7.96
12430;BMP280;6279;42.192;24.326;2023-01-15T14:34:16;99456.94;;;7.88
12430;BMP280;6279;42.192;24.326;2023-01-15T14:36:47;99460.22;;;7.81
12430;BMP280;6279;42.192;24.326;2023-01-15T14:39:46;99465.09;;;7.84
12430;BMP280;6279;42.192;24.326;2023-01-15T14:42:23;99460.50;;;7.87
12430;BMP280;6279;42.192;24.326;2023-01-15T14:47:46;99462.94;;;7.88
12430;BMP280;6279;42.192;24.326;2023-01-15T14:50:28;99459.41;;;7.89
12430;BMP280;6279;42.192;24.326;2023-01-15T14:55:46;99462.09;;;7.97
12430;BMP280;6279;42.192;24.326;2023-01-15T14:58:43;99466.75;;;7.94
12430;BMP280;6279;42.192;24.326;2023-01-15T15:06:49;99462.13;;;7.88
12430;BMP280;6279;42.192;24.326;2023-01-15T15:12:05;99471.38;;;7.90
12430;BMP280;6279;42.192;24.326;2023-01-15T15:14:50;99458.97;;;7.94
12430;BMP280;6279;42.192;24.326;2023-01-15T15:17:24;99465.09;;;8.02
12430;BMP280;6279;42.192;24.326;2023-01-15T15:20:02;99461.56;;;8.03
12430;BMP280;6279;42.192;24.326;2023-01-15T15:22:31;99473.13;;;7.99
12430;BMP280;6279;42.192;24.326;2023-01-15T15:25:03;99468.50;;;8.03
12430;BMP280;6279;42.192;24.326;2023-01-15T15:27:32;99464.81;;;7.96
12430;BMP280;6279;42.192;24.326;2023-01-15T15:30:06;99466.97;;;8.00
12430;BMP280;6279;42.192;24.326;2023-01-15T15:32:32;99471.22;;;8.01
12430;BMP280;6279;42.192;24.326;2023-01-15T15:35:05;99470.72;;;7.88
12430;BMP280;6279;42.192;24.326;2023-01-15T15:37:43;99476.28;;;7.93
12430;BMP280;6279;42.192;24.326;2023-01-15T15:40:17;99472.19;;;7.91
12430;BMP280;6279;42.192;24.326;2023-01-15T15:43:14;99474.66;;;7.92
12430;BMP280;6279;42.192;24.326;2023-01-15T15:46:00;99475.59;;;7.91
12430;BMP280;6279;42.192;24.326;2023-01-15T15:49:03;99481.47;;;7.93
12430;BMP280;6279;42.192;24.326;2023-01-15T15:54:22;99484.59;;;7.97
12430;BMP280;6279;42.192;24.326;2023-01-15T15:57:20;99480.75;;;8.01
12430;BMP280;6279;42.192;24.326;2023-01-15T15:59:47;99474.13;;;7.89
12430;BMP280;6279;42.192;24.326;2023-01-15T16:02:37;99478.47;;;7.88
12430;BMP280;6279;42.192;24.326;2023-01-15T16:05:28;99480.78;;;7.82
12430;BMP280;6279;42.192;24.326;2023-01-15T16:10:40;99486.94;;;7.90
12430;BMP280;6279;42.192;24.326;2023-01-15T16:13:09;99487.22;;;7.88
12430;BMP280;6279;42.192;24.326;2023-01-15T16:15:39;99496.31;;;7.82
12430;BMP280;6279;42.192;24.326;2023-01-15T16:18:05;99493.88;;;7.90
12430;BMP280;6279;42.192;24.326;2023-01-15T16:20:38;99499.19;;;8.07
12430;BMP280;6279;42.192;24.326;2023-01-15T16:23:22;99503.94;;;8.02
12430;BMP280;6279;42.192;24.326;2023-01-15T16:28:25;99495.78;;;8.07
12430;BMP280;6279;42.192;24.326;2023-01-15T16:30:57;99491.16;;;7.91
12430;BMP280;6279;42.192;24.326;2023-01-15T16:33:24;99486.09;;;7.90
12430;BMP280;6279;42.192;24.326;2023-01-15T16:36:00;99497.81;;;7.85
12430;BMP280;6279;42.192;24.326;2023-01-15T16:38:31;99499.06;;;7.81
12430;BMP280;6279;42.192;24.326;2023-01-15T16:40:58;99503.13;;;7.83
12430;BMP280;6279;42.192;24.326;2023-01-15T16:43:24;99491.56;;;7.78
12430;BMP280;6279;42.192;24.326;2023-01-15T16:46:15;99505.59;;;7.85
12430;BMP280;6279;42.192;24.326;2023-01-15T16:48:41;99506.25;;;7.87
12430;BMP280;6279;42.192;24.326;2023-01-15T16:51:33;99508.59;;;7.80
12430;BMP280;6279;42.192;24.326;2023-01-15T16:54:03;99503.81;;;7.85
12430;BMP280;6279;42.192;24.326;2023-01-15T16:59:18;99493.75;;;7.73
12430;BMP280;6279;42.192;24.326;2023-01-15T17:02:13;99498.66;;;7.66
12430;BMP280;6279;42.192;24.326;2023-01-15T17:04:43;99501.38;;;7.65
12430;BMP280;6279;42.192;24.326;2023-01-15T17:09:43;99490.50;;;7.62
12430;BMP280;6279;42.192;24.326;2023-01-15T17:12:23;99496.22;;;7.56
12430;BMP280;6279;42.192;24.326;2023-01-15T17:14:50;99506.28;;;7.49
12430;BMP280;6279;42.192;24.326;2023-01-15T17:17:23;99485.88;;;7.56
12430;BMP280;6279;42.192;24.326;2023-01-15T17:19:53;99495.53;;;7.63
12430;BMP280;6279;42.192;24.326;2023-01-15T17:22:26;99480.81;;;7.64